Time;durP1;ratioP1;P1;durP2;ratioP2;P2;SDS_P1;SDS_P2;PMS_P1;PMS_P2;Temp;Humidity;BMP_temperature;BMP_pressure;BME280_temperature;BME280_humidity;BME280_pressure;Samples;Min_cycle;Max_cycle;Signal;HPM_P1;HPM_P2
2023/05/27 00:01:48;;;;;;;6.43;2.10;;;16.90;99.90;;;;;;5053058;28;20072;-50
2023/05/27 00:04:14;;;;;;;3.00;2.00;;;16.90;99.90;;;;;;5052954;28;20029;-48
2023/05/27 00:06:40;;;;;;;3.72;2.10;;;16.80;99.90;;;;;;5033852;28;20049;-50
2023/05/27 00:09:06;;;;;;;3.15;2.25;;;16.80;99.90;;;;;;5052456;28;20071;-49
2023/05/27 00:11:32;;;;;;;2.60;1.83;;;16.90;99.90;;;;;;5052952;28;20060;-48
2023/05/27 00:13:57;;;;;;;3.92;2.00;;;16.90;99.90;;;;;;5030286;28;20033;-48
2023/05/27 00:16:24;;;;;;;4.03;2.33;;;16.90;99.90;;;;;;5012349;28;20091;-46
2023/05/27 00:18:50;;;;;;;2.80;1.67;;;16.90;99.90;;;;;;5036754;28;20033;-48
2023/05/27 00:21:16;;;;;;;2.78;1.70;;;16.80;99.90;;;;;;5013082;28;20045;-48
2023/05/27 00:23:46;;;;;;;4.05;1.98;;;16.80;99.90;;;;;;5030386;28;20037;-49
2023/05/27 00:26:11;;;;;;;3.42;1.88;;;16.70;99.90;;;;;;5050177;28;20060;-48
2023/05/27 00:28:37;;;;;;;2.35;1.65;;;16.70;99.90;;;;;;5014240;28;20065;-49
2023/05/27 00:31:03;;;;;;;1.95;1.38;;;16.70;99.90;;;;;;5030112;28;20065;-48
2023/05/27 00:33:29;;;;;;;3.25;1.90;;;16.70;99.90;;;;;;5013039;28;20653;-50
2023/05/27 00:35:54;;;;;;;2.33;1.48;;;16.60;99.90;;;;;;5030630;28;20037;-49
2023/05/27 00:38:20;;;;;;;2.53;2.20;;;16.60;99.90;;;;;;4997286;28;20038;-48
2023/05/27 00:40:46;;;;;;;2.55;1.63;;;16.60;99.90;;;;;;5015911;28;20052;-47
2023/05/27 00:43:12;;;;;;;3.25;1.88;;;16.60;99.90;;;;;;5029189;28;20080;-49
2023/05/27 00:45:38;;;;;;;3.78;2.05;;;16.60;99.90;;;;;;5046917;28;20183;-49
2023/05/27 00:48:04;;;;;;;5.53;2.20;;;16.60;99.90;;;;;;5053373;28;20032;-50
2023/05/27 00:50:30;;;;;;;3.10;1.95;;;16.70;99.90;;;;;;5052240;28;20143;-48
2023/05/27 00:52:57;;;;;;;5.68;1.88;;;16.70;99.90;;;;;;5052367;28;20104;-50
2023/05/27 00:55:24;;;;;;;3.13;1.90;;;16.60;99.90;;;;;;5052055;28;20044;-49
2023/05/27 00:57:50;;;;;;;3.35;2.13;;;16.70;99.90;;;;;;5051885;28;20029;-49
2023/05/27 01:00:16;;;;;;;5.03;2.08;;;16.60;99.90;;;;;;5052431;28;20477;-50
2023/05/27 01:02:42;;;;;;;2.92;1.83;;;16.60;99.90;;;;;;5082476;28;20055;-50
2023/05/27 01:05:11;;;;;;;3.13;1.88;;;16.60;99.90;;;;;;5051795;28;20108;-50
2023/05/27 01:08:01;;;;;;;3.65;2.03;;;16.60;99.90;;;;;;5051651;28;20029;-50
2023/05/27 01:10:53;;;;;;;3.20;2.15;;;16.60;99.90;;;;;;5052123;28;20047;-49
2023/05/27 01:13:38;;;;;;;3.65;2.00;;;16.50;99.90;;;;;;5051442;28;20114;-49
2023/05/27 01:16:11;;;;;;;2.67;1.85;;;16.60;99.90;;;;;;5052623;28;20032;-48
2023/05/27 01:18:40;;;;;;;3.42;2.28;;;16.60;99.90;;;;;;5051617;28;20115;-48
2023/05/27 01:21:09;;;;;;;3.42;2.22;;;16.60;99.90;;;;;;5051749;28;20080;-48
2023/05/27 01:23:38;;;;;;;3.05;2.20;;;16.50;99.90;;;;;;5051282;28;20049;-48
2023/05/27 01:26:05;;;;;;;3.72;2.65;;;16.60;99.90;;;;;;5051404;28;20112;-50
2023/05/27 01:28:31;;;;;;;4.75;2.00;;;16.60;99.90;;;;;;5049449;28;20553;-50
2023/05/27 01:31:09;;;;;;;3.42;2.25;;;16.60;99.90;;;;;;5051616;28;20131;-48
2023/05/27 01:33:38;;;;;;;2.53;1.98;;;16.40;99.90;;;;;;5051753;28;20107;-49
2023/05/27 01:36:17;;;;;;;4.22;2.45;;;16.40;99.90;;;;;;5051214;28;20385;-47
2023/05/27 01:38:45;;;;;;;4.30;2.10;;;16.30;99.90;;;;;;5051036;28;20070;-48
2023/05/27 01:41:12;;;;;;;3.90;2.03;;;;;;;;;;5051033;28;20129;-48
2023/05/27 01:43:39;;;;;;;5.43;2.08;;;;;;;;;;5070195;28;20041;-50
2023/05/27 01:46:05;;;;;;;4.80;2.47;;;16.20;99.90;;;;;;5050779;28;20813;-47
2023/05/27 01:48:31;;;;;;;3.60;2.40;;;16.20;99.90;;;;;;5048972;28;20037;-48
2023/05/27 01:50:56;;;;;;;4.28;2.45;;;16.20;99.90;;;;;;5051236;28;20032;-49
2023/05/27 01:53:22;;;;;;;3.75;2.30;;;16.30;99.90;;;;;;5050931;28;20727;-50
2023/05/27 01:55:48;;;;;;;4.93;2.20;;;16.20;99.90;;;;;;5050757;28;20055;-48
2023/05/27 01:58:14;;;;;;;4.05;2.63;;;16.20;99.90;;;;;;5051273;28;20450;-49
2023/05/27 02:00:40;;;;;;;4.22;2.22;;;16.20;99.90;;;;;;5050742;28;20476;-50
2023/05/27 02:03:06;;;;;;;4.45;2.20;;;16.20;99.90;;;;;;5051524;28;20095;-50
2023/05/27 02:05:32;;;;;;;5.75;2.72;;;16.20;99.90;;;;;;5051040;28;20035;-50
2023/05/27 02:07:58;;;;;;;3.97;2.25;;;16.20;99.90;;;;;;5078374;28;20037;-49
2023/05/27 02:10:24;;;;;;;9.80;2.67;;;16.20;99.90;;;;;;5077490;28;20151;-49
2023/05/27 02:12:49;;;;;;;3.20;2.33;;;16.30;99.90;;;;;;5050543;28;20103;-50
2023/05/27 02:15:15;;;;;;;6.18;2.83;;;16.20;99.90;;;;;;5067188;28;20041;-48
2023/05/27 02:17:44;;;;;;;4.45;2.33;;;16.20;99.90;;;;;;5050367;28;20017;-50
2023/05/27 02:20:11;;;;;;;3.30;2.17;;;16.10;99.90;;;;;;5050295;28;20037;-49
2023/05/27 02:22:36;;;;;;;3.25;2.55;;;16.00;99.90;;;;;;5064012;28;20476;-49
2023/05/27 02:25:02;;;;;;;3.90;2.13;;;16.20;99.90;;;;;;5051062;28;20036;-48
2023/05/27 02:27:28;;;;;;;4.65;2.53;;;16.20;99.90;;;;;;5050654;28;20480;-48
2023/05/27 02:29:54;;;;;;;5.18;2.78;;;16.10;99.90;;;;;;5050920;28;20648;-48
2023/05/27 02:32:19;;;;;;;5.72;2.90;;;16.20;99.90;;;;;;5051344;28;20029;-49
2023/05/27 02:34:45;;;;;;;3.90;2.65;;;;;;;;;;5072669;28;20041;-49
2023/05/27 02:37:11;;;;;;;5.07;2.78;;;16.20;99.90;;;;;;5053057;28;20087;-50
2023/05/27 02:39:38;;;;;;;6.50;2.53;;;16.20;99.90;;;;;;5068827;28;20435;-48
2023/05/27 02:42:04;;;;;;;3.80;2.60;;;16.10;99.90;;;;;;5047775;28;20041;-48
2023/05/27 02:44:30;;;;;;;7.50;3.05;;;16.20;99.90;;;;;;5030880;28;20067;-48
2023/05/27 02:46:55;;;;;;;3.97;3.05;;;16.10;99.90;;;;;;5050011;28;20097;-50
2023/05/27 02:49:21;;;;;;;4.38;3.00;;;16.00;99.90;;;;;;5048607;28;20044;-48
2023/05/27 02:51:47;;;;;;;6.10;3.15;;;16.00;99.90;;;;;;5061219;28;20127;-49
2023/05/27 02:54:13;;;;;;;6.20;2.78;;;;;;;;;;5032068;28;20121;-49
2023/05/27 02:56:39;;;;;;;5.22;3.40;;;;;;;;;;5064407;28;20051;-48
2023/05/27 02:59:05;;;;;;;4.93;2.97;;;16.10;99.90;;;;;;5049661;28;20084;-49
2023/05/27 03:01:32;;;;;;;5.65;3.38;;;;;;;;;;5077277;28;20155;-49
2023/05/27 03:03:57;;;;;;;3.83;2.95;;;16.00;99.90;;;;;;5050675;28;20079;-49
2023/05/27 03:06:23;;;;;;;8.07;3.30;;;16.10;99.90;;;;;;5064454;28;20044;-48
2023/05/27 03:08:49;;;;;;;5.05;3.40;;;16.00;99.90;;;;;;5050490;28;20419;-49
2023/05/27 03:11:15;;;;;;;4.78;3.40;;;;;;;;;;5049722;28;20032;-48
2023/05/27 03:13:41;;;;;;;5.75;3.15;;;;;;;;;;5066167;28;20024;-48
2023/05/27 03:16:07;;;;;;;5.30;3.20;;;;;;;;;;5067736;28;20041;-48
2023/05/27 03:18:33;;;;;;;4.55;3.00;;;16.10;99.90;;;;;;5066745;28;20040;-50
2023/05/27 03:20:58;;;;;;;4.95;2.92;;;16.20;99.90;;;;;;5050600;28;20086;-51
2023/05/27 03:23:24;;;;;;;7.43;3.30;;;16.20;99.90;;;;;;5064797;28;20032;-49
2023/05/27 03:25:50;;;;;;;5.10;3.08;;;16.20;99.90;;;;;;5052253;28;20044;-49
2023/05/27 03:28:16;;;;;;;7.35;2.80;;;16.20;99.90;;;;;;5049686;28;20586;-50
2023/05/27 03:30:43;;;;;;;6.07;3.40;;;16.20;99.90;;;;;;5068299;28;20051;-50
2023/05/27 03:33:08;;;;;;;6.20;3.40;;;16.20;99.90;;;;;;5049481;28;20150;-50
2023/05/27 03:35:34;;;;;;;5.07;2.70;;;16.30;99.90;;;;;;5050624;28;20528;-50
2023/05/27 03:38:00;;;;;;;5.55;3.67;;;16.30;99.90;;;;;;5063952;28;20036;-48
2023/05/27 03:40:26;;;;;;;4.88;2.67;;;16.30;99.90;;;;;;5049710;28;20047;-52
2023/05/27 03:42:53;;;;;;;4.53;2.72;;;16.40;99.90;;;;;;5069868;28;20047;-49
2023/05/27 03:45:18;;;;;;;6.78;3.28;;;16.30;99.90;;;;;;5049504;28;20028;-50
2023/05/27 03:47:44;;;;;;;6.00;3.15;;;16.40;99.90;;;;;;5050580;28;20029;-48
2023/05/27 03:50:10;;;;;;;6.60;3.10;;;16.40;99.90;;;;;;5049337;28;20159;-50
2023/05/27 03:52:36;;;;;;;3.80;2.80;;;16.40;99.90;;;;;;5049700;28;20068;-49
2023/05/27 03:55:02;;;;;;;5.93;2.92;;;16.50;99.90;;;;;;5050224;28;20056;-49
2023/05/27 03:57:27;;;;;;;6.10;3.42;;;16.50;99.90;;;;;;5065518;28;20037;-48
2023/05/27 03:59:53;;;;;;;6.00;2.90;;;16.60;99.90;;;;;;5066410;28;20055;-48
2023/05/27 04:02:19;;;;;;;4.95;2.83;;;16.60;99.90;;;;;;5071762;28;20063;-49
2023/05/27 04:04:46;;;;;;;4.35;2.70;;;16.70;99.90;;;;;;5053689;28;20484;-48
2023/05/27 04:07:13;;;;;;;4.05;2.78;;;16.70;99.90;;;;;;5072881;28;20500;-49
2023/05/27 04:09:38;;;;;;;5.82;3.20;;;16.70;99.90;;;;;;5054935;28;20076;-50
2023/05/27 04:12:06;;;;;;;6.35;3.00;;;16.80;99.90;;;;;;5034023;28;20060;-48
2023/05/27 04:14:32;;;;;;;5.18;2.50;;;16.90;99.90;;;;;;5052618;28;20468;-50
2023/05/27 04:16:58;;;;;;;6.00;3.05;;;17.00;99.90;;;;;;5052663;28;20040;-51
2023/05/27 04:19:23;;;;;;;5.65;3.40;;;17.00;99.90;;;;;;5054209;28;20033;-49
2023/05/27 04:21:49;;;;;;;7.93;3.10;;;17.10;99.90;;;;;;5070803;28;20051;-49
2023/05/27 04:24:15;;;;;;;4.13;2.75;;;17.10;99.90;;;;;;5060883;28;20055;-48
2023/05/27 04:26:41;;;;;;;5.82;3.17;;;17.20;99.90;;;;;;5059430;28;20040;-50
2023/05/27 04:29:09;;;;;;;6.35;3.03;;;17.20;99.90;;;;;;5062614;28;20494;-50
2023/05/27 04:31:36;;;;;;;7.22;3.05;;;17.20;99.90;;;;;;5052242;28;20037;-49
2023/05/27 04:34:02;;;;;;;7.80;3.30;;;17.20;99.90;;;;;;5053217;28;20619;-49
2023/05/27 04:36:32;;;;;;;7.28;3.55;;;17.20;99.90;;;;;;5052151;28;20061;-49
2023/05/27 04:38:59;;;;;;;4.60;2.72;;;17.30;99.90;;;;;;5067670;28;20179;-47
2023/05/27 04:41:28;;;;;;;4.82;3.13;;;17.20;99.90;;;;;;5073097;28;20048;-47
2023/05/27 04:43:54;;;;;;;3.50;2.50;;;17.30;99.90;;;;;;5072720;28;20584;-50
2023/05/27 04:46:20;;;;;;;6.40;2.85;;;17.30;99.90;;;;;;5066155;28;20044;-49
2023/05/27 04:48:47;;;;;;;5.78;3.50;;;17.30;99.90;;;;;;5082501;28;20045;-49
2023/05/27 04:51:15;;;;;;;5.93;3.25;;;17.30;99.90;;;;;;5052805;28;20033;-49
2023/05/27 04:53:41;;;;;;;6.28;2.63;;;17.50;99.90;;;;;;5052035;28;20090;-48
2023/05/27 04:56:08;;;;;;;7.28;3.28;;;17.40;99.90;;;;;;5052224;28;20079;-47
2023/05/27 04:58:34;;;;;;;5.35;3.67;;;17.40;99.90;;;;;;5066182;28;20484;-50
2023/05/27 05:01:00;;;;;;;4.57;2.53;;;17.50;99.90;;;;;;5051885;28;20086;-49
2023/05/27 05:03:39;;;;;;;4.40;3.20;;;17.50;99.90;;;;;;5051900;28;20056;-48
2023/05/27 05:06:05;;;;;;;6.13;2.95;;;17.60;99.90;;;;;;5051788;28;20380;-49
2023/05/27 05:08:31;;;;;;;5.80;3.67;;;17.70;99.90;;;;;;5032440;28;20037;-49
2023/05/27 05:10:57;;;;;;;6.28;3.15;;;17.80;99.90;;;;;;5051969;28;20051;-50
2023/05/27 05:13:23;;;;;;;5.15;2.78;;;17.90;99.90;;;;;;5052338;28;20640;-50
2023/05/27 05:15:49;;;;;;;3.70;2.53;;;17.90;99.90;;;;;;5051334;28;20052;-50
2023/05/27 05:18:15;;;;;;;5.45;3.25;;;18.00;99.90;;;;;;5051273;28;20558;-49
2023/05/27 05:20:40;;;;;;;6.80;3.33;;;18.00;99.90;;;;;;5051465;28;20025;-50
2023/05/27 05:23:08;;;;;;;6.55;3.75;;;18.20;99.90;;;;;;5070292;28;20048;-50
2023/05/27 05:25:37;;;;;;;7.78;3.50;;;18.30;99.90;;;;;;5052363;28;20362;-49
2023/05/27 05:28:05;;;;;;;7.50;3.60;;;18.30;99.90;;;;;;5057834;28;20045;-50
2023/05/27 05:30:31;;;;;;;4.80;2.92;;;18.40;99.90;;;;;;5057932;28;20540;-50
2023/05/27 05:32:57;;;;;;;7.68;3.58;;;18.50;99.90;;;;;;5070393;28;20503;-50
2023/05/27 05:35:23;;;;;;;6.07;3.22;;;18.60;99.90;;;;;;5051022;28;20056;-50
2023/05/27 05:37:49;;;;;;;9.70;3.72;;;18.60;99.90;;;;;;5051834;28;20064;-48
2023/05/27 05:40:15;;;;;;;7.63;3.97;;;18.60;99.90;;;;;;5051030;28;20037;-50
2023/05/27 05:42:40;;;;;;;6.18;3.75;;;18.70;99.90;;;;;;5065104;28;20068;-51
2023/05/27 05:45:07;;;;;;;6.00;3.33;;;;;;;;;;5069658;28;20040;-51
2023/05/27 05:47:33;;;;;;;6.45;3.63;;;;;;;;;;5032301;28;20119;-50
2023/05/27 05:49:59;;;;;;;6.07;4.22;;;;;;;;;;5055834;28;20040;-47
2023/05/27 05:52:25;;;;;;;5.43;2.92;;;;;;;;;;5075170;28;20036;-48
2023/05/27 05:54:52;;;;;;;5.38;3.13;;;;;;;;;;5062483;28;20048;-50
2023/05/27 05:57:18;;;;;;;7.93;3.60;;;;;;;;;;5030564;28;20029;-49
2023/05/27 05:59:44;;;;;;;6.55;3.55;;;;;;;;;;5058826;28;20050;-50
2023/05/27 06:02:10;;;;;;;3.13;2.25;;;;;;;;;;5055101;28;20032;-48
2023/05/27 06:04:37;;;;;;;16.45;2.33;;;;;;;;;;5053579;28;20040;-51
2023/05/27 06:07:03;;;;;;;3.58;2.33;;;;;;;;;;5054782;28;20040;-50
2023/05/27 06:09:29;;;;;;;4.30;2.70;;;;;;;;;;5034907;28;20055;-48
2023/05/27 06:11:55;;;;;;;6.72;3.97;;;;;;;;;;5058681;28;20498;-50
2023/05/27 06:14:22;;;;;;;7.70;3.20;;;;;;;;;;5043865;28;20037;-48
2023/05/27 06:16:48;;;;;;;7.93;4.00;;;;;;;;;;5066841;28;20086;-48
2023/05/27 06:19:14;;;;;;;7.05;3.90;;;;;;;;;;5072865;28;20020;-46
2023/05/27 06:21:41;;;;;;;6.93;3.90;;;;;;;;;;5065108;28;20064;-48
2023/05/27 06:24:07;;;;;;;7.05;3.90;;;;;;;;;;5066222;28;20079;-48
2023/05/27 06:26:33;;;;;;;5.82;2.83;;;;;;;;;;5056876;28;20388;-50
2023/05/27 06:28:59;;;;;;;7.30;3.40;;;;;;;;;;5074579;28;20337;-48
2023/05/27 06:31:26;;;;;;;5.72;3.58;;;;;;;;;;5067624;28;20032;-48
2023/05/27 06:33:53;;;;;;;6.22;4.13;;;;;;;;;;5071370;28;20376;-47
2023/05/27 06:36:19;;;;;;;5.55;3.70;;;;;;;;;;5064230;28;20025;-47
2023/05/27 06:38:45;;;;;;;7.07;3.42;;;;;;;;;;5063827;28;20032;-48
2023/05/27 06:41:11;;;;;;;4.35;2.63;;;;;;;;;;5067295;28;20032;-48
2023/05/27 06:43:37;;;;;;;5.47;4.25;;;;;;;;;;5062360;28;20086;-48
2023/05/27 06:46:04;;;;;;;3.75;2.47;;;;;;;;;;5070055;28;20040;-47
2023/05/27 06:48:30;;;;;;;4.35;3.25;;;;;;;;;;5065927;28;20045;-47
2023/05/27 06:50:56;;;;;;;5.45;3.65;;;19.40;99.90;;;;;;5060250;28;20037;-47
2023/05/27 06:53:21;;;;;;;4.07;3.15;;;19.50;99.90;;;;;;5062737;28;20039;-49
2023/05/27 06:55:47;;;;;;;6.10;4.18;;;19.50;99.90;;;;;;5051169;28;20045;-48
2023/05/27 06:58:13;;;;;;;5.78;3.92;;;19.70;99.90;;;;;;5050367;28;20059;-47
2023/05/27 07:00:38;;;;;;;3.88;1.88;;;19.90;99.90;;;;;;5069091;28;20056;-48
2023/05/27 07:03:05;;;;;;;5.32;3.25;;;19.70;99.90;;;;;;5041150;28;20048;-48
2023/05/27 07:05:31;;;;;;;4.32;2.58;;;;;;;;;;5060923;28;20060;-50
2023/05/27 07:07:57;;;;;;;6.28;4.07;;;19.80;99.90;;;;;;5064880;28;20032;-48
2023/05/27 07:10:23;;;;;;;5.00;3.67;;;20.10;99.90;;;;;;5060862;28;20047;-49
2023/05/27 07:12:49;;;;;;;5.00;3.47;;;20.20;99.90;;;;;;5070028;28;20028;-48
2023/05/27 07:15:15;;;;;;;5.35;3.83;;;20.10;99.90;;;;;;5079439;28;20029;-48
2023/05/27 07:17:40;;;;;;;6.97;4.22;;;20.20;99.90;;;;;;5062639;28;20036;-49
2023/05/27 07:20:07;;;;;;;4.97;3.35;;;20.40;99.90;;;;;;5058008;28;20107;-48
2023/05/27 07:22:32;;;;;;;6.20;4.43;;;20.20;99.90;;;;;;5063691;28;20041;-48
2023/05/27 07:24:58;;;;;;;6.78;4.97;;;20.20;99.90;;;;;;5061824;28;20135;-48
2023/05/27 07:27:24;;;;;;;5.93;4.40;;;20.40;99.90;;;;;;5017341;28;20041;-49
2023/05/27 07:29:50;;;;;;;6.70;3.90;;;20.40;99.90;;;;;;5064393;28;20389;-48
2023/05/27 07:32:15;;;;;;;5.85;4.07;;;20.70;99.90;;;;;;5053093;28;20522;-47
2023/05/27 07:34:41;;;;;;;6.88;4.55;;;20.70;99.90;;;;;;5067008;28;20499;-50
2023/05/27 07:37:07;;;;;;;5.97;4.47;;;20.70;99.90;;;;;;5063593;28;20482;-49
2023/05/27 07:39:32;;;;;;;5.82;4.35;;;20.80;99.90;;;;;;5069081;28;20029;-45
2023/05/27 07:41:58;;;;;;;6.20;4.55;;;20.70;99.90;;;;;;5065289;28;20025;-46
2023/05/27 07:44:24;;;;;;;6.13;3.10;;;20.90;99.90;;;;;;5065828;28;20029;-46
2023/05/27 07:46:50;;;;;;;4.72;3.15;;;20.90;99.90;;;;;;5068688;28;20024;-47
2023/05/27 07:49:16;;;;;;;6.65;4.30;;;20.80;99.90;;;;;;5025381;28;20106;-46
2023/05/27 07:51:41;;;;;;;6.50;4.55;;;20.60;99.90;;;;;;5048220;28;20045;-48
2023/05/27 07:54:07;;;;;;;6.78;4.80;;;20.70;99.90;;;;;;5064544;28;20028;-48
2023/05/27 07:56:34;;;;;;;7.13;4.72;;;20.80;99.90;;;;;;5070152;28;20380;-49
2023/05/27 07:59:00;;;;;;;7.70;4.80;;;20.70;99.90;;;;;;5065481;28;20126;-48
2023/05/27 08:01:30;;;;;;;7.57;4.70;;;20.60;99.90;;;;;;5067654;28;20060;-48
2023/05/27 08:03:56;;;;;;;7.95;4.72;;;;;;;;;;5068877;28;20510;-47
2023/05/27 08:06:22;;;;;;;5.80;4.28;;;21.10;99.90;;;;;;5068276;28;20050;-49
2023/05/27 08:08:48;;;;;;;7.00;4.93;;;21.20;99.90;;;;;;5067539;28;20377;-48
2023/05/27 08:11:14;;;;;;;7.75;5.47;;;21.10;99.90;;;;;;5069759;28;20086;-50
2023/05/27 08:13:39;;;;;;;9.02;5.20;;;21.10;99.90;;;;;;5063088;28;20153;-49
2023/05/27 08:16:05;;;;;;;8.40;4.82;;;21.10;99.90;;;;;;5058572;28;20044;-48
2023/05/27 08:18:31;;;;;;;8.18;4.95;;;21.00;99.90;;;;;;5053098;28;20167;-48
2023/05/27 08:20:56;;;;;;;7.78;5.07;;;21.10;99.90;;;;;;5041878;28;20102;-47
2023/05/27 08:23:22;;;;;;;5.57;4.10;;;21.00;99.90;;;;;;5080971;28;20395;-51
2023/05/27 08:25:48;;;;;;;7.60;5.60;;;;;;;;;;5082573;28;20040;-50
2023/05/27 08:28:16;;;;;;;9.93;5.70;;;20.80;99.90;;;;;;5070520;28;20507;-47
2023/05/27 08:30:42;;;;;;;9.40;5.68;;;21.10;99.90;;;;;;5064975;28;20048;-49
2023/05/27 08:33:08;;;;;;;7.05;4.90;;;21.20;99.90;;;;;;5048899;28;20503;-50
2023/05/27 08:35:34;;;;;;;7.65;4.70;;;21.10;99.90;;;;;;5069322;28;20060;-51
2023/05/27 08:37:59;;;;;;;4.13;2.78;;;20.90;99.90;;;;;;5076256;28;20068;-48
2023/05/27 08:40:25;;;;;;;8.27;5.45;;;20.90;99.90;;;;;;5047311;28;20029;-48
2023/05/27 08:42:51;;;;;;;6.20;4.75;;;20.90;99.90;;;;;;5062190;28;20036;-47
2023/05/27 08:45:17;;;;;;;9.50;5.53;;;21.00;99.90;;;;;;5067696;28;20482;-47
2023/05/27 08:47:43;;;;;;;8.13;5.82;;;21.10;99.90;;;;;;5069438;28;20032;-49
2023/05/27 08:50:09;;;;;;;5.93;4.72;;;21.50;99.90;;;;;;5078750;28;20128;-48
2023/05/27 08:52:42;;;;;;;7.20;5.30;;;21.50;99.90;;;;;;5070876;28;20111;-48
2023/05/27 08:55:09;;;;;;;7.53;5.75;;;;;;;;;;5050805;28;20044;-48
2023/05/27 08:57:36;;;;;;;6.97;4.65;;;21.80;99.90;;;;;;5067455;28;20037;-48
2023/05/27 09:00:02;;;;;;;8.85;5.80;;;21.40;99.90;;;;;;5064680;28;20097;-50
2023/05/27 09:02:28;;;;;;;7.18;5.40;;;;;;;;;;5062184;28;20469;-47
2023/05/27 09:04:54;;;;;;;8.70;5.07;;;22.30;99.90;;;;;;5062109;28;20077;-48
2023/05/27 09:07:20;;;;;;;7.35;5.65;;;;;;;;;;5059245;28;20037;-49
2023/05/27 09:09:57;;;;;;;8.25;5.78;;;;;;;;;;5058204;28;20036;-49
2023/05/27 09:12:24;;;;;;;8.13;5.60;;;;;;;;;;5069285;28;20096;-47
2023/05/27 09:14:51;;;;;;;5.45;4.47;;;;;;;;;;5062545;28;20021;-47
2023/05/27 09:17:17;;;;;;;6.35;3.95;;;;;;;;;;5066051;28;20028;-46
2023/05/27 09:19:45;;;;;;;7.60;4.63;;;;;;;;;;5068200;28;20090;-46
2023/05/27 09:22:19;;;;;;;8.80;4.68;;;;;;;;;;5062854;28;20029;-47
2023/05/27 09:24:45;;;;;;;7.68;4.95;;;;;;;;;;5062938;28;20519;-47
2023/05/27 09:27:12;;;;;;;7.03;5.43;;;22.70;99.90;;;;;;5059172;28;20139;-49
2023/05/27 09:29:41;;;;;;;8.95;5.45;;;22.20;99.90;;;;;;5079451;28;20035;-47
2023/05/27 09:32:08;;;;;;;6.70;5.45;;;22.00;99.90;;;;;;5056625;28;20468;-46
2023/05/27 09:34:40;;;;;;;8.52;5.18;;;22.00;99.90;;;;;;5063888;28;20395;-46
2023/05/27 09:37:12;;;;;;;5.30;4.32;;;21.70;99.90;;;;;;5067279;28;20045;-46
2023/05/27 09:39:39;;;;;;;7.43;5.07;;;21.90;99.90;;;;;;5060606;28;20041;-47
2023/05/27 09:42:05;;;;;;;6.40;4.70;;;;;;;;;;5058167;28;20059;-46
2023/05/27 09:44:37;;;;;;;6.93;5.40;;;;;;;;;;5061316;28;20033;-46
2023/05/27 09:47:05;;;;;;;10.85;5.80;;;;;;;;;;5069054;28;20025;-46
2023/05/27 09:49:34;;;;;;;10.23;4.07;;;;;;;;;;5065146;28;20045;-46
2023/05/27 09:52:01;;;;;;;8.60;4.63;;;;;;;;;;5072473;28;20060;-46
2023/05/27 09:54:27;;;;;;;6.70;4.93;;;;;;;;;;5069047;28;20024;-46
2023/05/27 09:56:54;;;;;;;8.55;5.45;;;;;;;;;;5069959;28;20400;-44
2023/05/27 09:59:20;;;;;;;5.68;4.40;;;23.80;99.90;;;;;;5065925;28;20060;-48
2023/05/27 10:01:47;;;;;;;7.28;5.40;;;24.00;99.90;;;;;;5045559;28;20040;-46
2023/05/27 10:04:17;;;;;;;6.88;4.72;;;24.10;99.90;;;;;;5060661;28;20040;-48
2023/05/27 10:06:45;;;;;;;7.32;4.63;;;23.90;99.90;;;;;;5064038;28;20032;-46
2023/05/27 10:09:13;;;;;;;6.38;4.80;;;24.00;99.90;;;;;;5063449;28;20044;-47
2023/05/27 10:11:40;;;;;;;6.25;5.38;;;23.90;99.90;;;;;;5065556;28;20036;-49
2023/05/27 10:14:06;;;;;;;7.68;4.95;;;23.80;99.90;;;;;;5030818;28;20369;-45
2023/05/27 10:16:34;;;;;;;8.82;4.97;;;23.70;99.90;;;;;;5061395;28;20032;-50
2023/05/27 10:19:00;;;;;;;7.97;5.50;;;;;;;;;;5063684;28;20465;-50
2023/05/27 10:21:28;;;;;;;6.63;5.00;;;24.30;99.90;;;;;;5078477;28;20400;-48
2023/05/27 10:23:58;;;;;;;6.70;4.68;;;;;;;;;;5063789;28;20419;-49
2023/05/27 10:26:41;;;;;;;6.88;5.65;;;24.90;99.90;;;;;;5065848;28;20047;-51
2023/05/27 10:29:09;;;;;;;7.88;5.53;;;24.90;99.90;;;;;;5035327;28;20041;-51
2023/05/27 10:31:38;;;;;;;6.90;5.25;;;25.30;99.90;;;;;;5074763;28;20042;-51
2023/05/27 10:34:08;;;;;;;5.72;4.35;;;25.10;99.90;;;;;;5060614;28;20238;-53
2023/05/27 10:36:36;;;;;;;6.88;5.68;;;25.30;99.90;;;;;;5040455;28;20122;-54
2023/05/27 10:39:05;;;;;;;6.53;4.80;;;;;;;;;;5070193;28;20044;-52
2023/05/27 10:41:40;;;;;;;7.05;5.70;;;;;;;;;;5069788;28;20036;-52
2023/05/27 10:44:07;;;;;;;6.00;5.20;;;;;;;;;;5066498;28;20028;-49
2023/05/27 10:46:41;;;;;;;8.63;5.47;;;;;;;;;;5072991;28;20037;-51
2023/05/27 10:49:37;;;;;;;6.90;5.55;;;25.40;99.90;;;;;;5069530;28;20072;-50
2023/05/27 10:52:10;;;;;;;6.80;5.43;;;;;;;;;;4989531;28;20045;-48
2023/05/27 10:54:37;;;;;;;6.70;5.28;;;25.60;99.90;;;;;;4997187;28;20061;-49
2023/05/27 10:57:03;;;;;;;6.80;5.45;;;25.50;99.90;;;;;;5005694;28;20034;-48
2023/05/27 10:59:45;;;;;;;7.53;5.47;;;25.50;99.90;;;;;;4996785;28;20053;-52
2023/05/27 11:02:12;;;;;;;5.93;4.63;;;;;;;;;;5011536;28;20499;-51
2023/05/27 11:04:38;;;;;;;6.47;5.07;;;;;;;;;;4976057;28;20038;-47
2023/05/27 11:07:04;;;;;;;10.00;6.28;;;25.50;99.90;;;;;;4968018;28;20087;-49
2023/05/27 11:09:51;;;;;;;7.30;5.07;;;25.70;99.90;;;;;;5001141;28;20057;-53
2023/05/27 11:12:18;;;;;;;6.93;5.22;;;;;;;;;;5006721;28;20116;-48
2023/05/27 11:14:52;;;;;;;7.43;5.38;;;26.10;99.90;;;;;;5015397;28;20084;-49
2023/05/27 11:17:18;;;;;;;9.50;5.80;;;26.10;99.90;;;;;;4979120;28;20041;-51
2023/05/27 11:19:45;;;;;;;8.45;5.18;;;25.90;99.90;;;;;;4990466;28;20644;-48
2023/05/27 11:22:12;;;;;;;6.93;5.20;;;;;;;;;;5003093;28;20070;-47
2023/05/27 11:24:38;;;;;;;6.53;5.00;;;26.40;99.90;;;;;;4997094;28;20034;-46
2023/05/27 11:27:11;;;;;;;9.55;5.38;;;26.30;99.90;;;;;;4976175;28;20091;-49
2023/05/27 11:29:38;;;;;;;7.90;4.82;;;26.10;99.90;;;;;;5047260;28;20123;-47
2023/05/27 11:32:08;;;;;;;8.02;5.15;;;26.10;99.90;;;;;;5068813;28;20025;-47
2023/05/27 11:34:34;;;;;;;7.35;5.13;;;;;;;;;;5067827;28;20028;-47
2023/05/27 11:37:04;;;;;;;7.47;4.95;;;26.60;99.90;;;;;;5068429;28;20496;-47
2023/05/27 11:39:30;;;;;;;8.10;5.57;;;26.50;99.90;;;;;;5068919;28;21898;-52
2023/05/27 11:41:57;;;;;;;8.43;5.70;;;26.70;99.90;;;;;;5065107;28;20031;-49
2023/05/27 11:44:24;;;;;;;5.82;4.57;;;26.60;99.90;;;;;;5075612;28;20086;-47
2023/05/27 11:46:52;;;;;;;6.82;5.35;;;27.10;99.90;;;;;;5059402;28;20025;-48
2023/05/27 11:49:19;;;;;;;6.93;5.05;;;27.40;99.90;;;;;;5063625;28;20489;-50
2023/05/27 11:51:49;;;;;;;8.45;5.38;;;27.10;99.90;;;;;;5069532;28;20496;-49
2023/05/27 11:54:19;;;;;;;6.10;4.90;;;;;;;;;;5069951;28;20033;-48
2023/05/27 11:56:45;;;;;;;6.80;5.93;;;;;;;;;;5074246;28;20028;-49
2023/05/27 11:59:10;;;;;;;7.13;4.90;;;28.10;99.90;;;;;;5073459;28;20094;-49
2023/05/27 12:01:36;;;;;;;6.63;5.07;;;28.10;99.90;;;;;;5075976;28;20032;-49
2023/05/27 12:04:03;;;;;;;7.95;5.78;;;27.70;99.90;;;;;;5079940;28;20638;-49
2023/05/27 12:06:29;;;;;;;7.47;5.50;;;27.50;99.90;;;;;;5055883;28;20041;-50
2023/05/27 12:08:55;;;;;;;6.32;5.18;;;27.20;99.90;;;;;;5062774;28;20029;-52
2023/05/27 12:11:21;;;;;;;7.88;5.28;;;27.00;99.90;;;;;;5026689;28;20048;-49
2023/05/27 12:13:47;;;;;;;7.97;5.43;;;26.90;99.90;;;;;;5051351;28;20039;-48
2023/05/27 12:16:13;;;;;;;7.32;5.40;;;27.10;99.90;;;;;;5081836;28;20040;-47
2023/05/27 12:18:41;;;;;;;7.05;4.65;;;27.60;99.90;;;;;;5074099;28;20128;-48
2023/05/27 12:21:07;;;;;;;5.47;4.40;;;27.70;99.90;;;;;;5067068;28;20086;-50
2023/05/27 12:23:33;;;;;;;9.07;5.22;;;27.50;99.90;;;;;;5069485;28;20052;-51
2023/05/27 12:25:59;;;;;;;7.20;5.07;;;27.00;99.90;;;;;;5049268;28;20040;-51
2023/05/27 12:28:26;;;;;;;5.78;4.47;;;27.20;99.90;;;;;;5050241;28;20041;-48
2023/05/27 12:30:51;;;;;;;6.32;5.15;;;26.90;99.90;;;;;;5051078;28;20053;-48
2023/05/27 12:33:17;;;;;;;5.65;4.88;;;26.90;99.90;;;;;;5043971;28;20036;-49
2023/05/27 12:35:43;;;;;;;5.60;4.95;;;27.10;99.90;;;;;;5049609;28;20041;-47
2023/05/27 12:38:10;;;;;;;5.90;5.05;;;27.30;99.90;;;;;;5048847;28;20492;-51
2023/05/27 12:40:36;;;;;;;6.95;5.07;;;27.10;99.90;;;;;;5050025;28;20094;-50
2023/05/27 12:43:03;;;;;;;7.55;5.25;;;26.90;99.90;;;;;;5072407;28;20645;-49
2023/05/27 12:45:30;;;;;;;6.00;5.05;;;26.50;99.90;;;;;;5053388;28;20045;-49
2023/05/27 12:47:57;;;;;;;7.07;5.40;;;26.70;99.90;;;;;;5055023;28;20104;-51
2023/05/27 12:50:23;;;;;;;6.35;5.45;;;27.40;99.90;;;;;;5046555;28;20037;-51
2023/05/27 12:52:51;;;;;;;5.13;4.38;;;27.60;99.90;;;;;;5033809;28;20609;-51
2023/05/27 12:55:18;;;;;;;5.68;4.40;;;27.50;99.90;;;;;;5057599;28;20659;-50
2023/05/27 12:57:46;;;;;;;5.47;4.43;;;27.60;99.90;;;;;;5073763;28;20037;-50
2023/05/27 13:00:12;;;;;;;6.00;4.70;;;27.40;99.90;;;;;;5066015;28;20044;-50
2023/05/27 13:02:38;;;;;;;6.40;5.22;;;27.30;99.90;;;;;;5054292;28;20044;-50
2023/05/27 13:05:08;;;;;;;5.97;4.40;;;27.00;99.90;;;;;;5062335;28;20034;-50
2023/05/27 13:07:35;;;;;;;6.35;4.18;;;26.90;99.90;;;;;;5056421;28;20049;-50
2023/05/27 13:10:02;;;;;;;4.13;3.28;;;26.40;99.90;;;;;;5079485;28;20047;-52